Time;durP1;ratioP1;P1;durP2;ratioP2;P2;SDS_P1;SDS_P2;PMS_P1;PMS_P2;Temp;Humidity;BMP_temperature;BMP_pressure;BME280_temperature;BME280_humidity;BME280_pressure;Samples;Min_cycle;Max_cycle;Signal;HPM_P1;HPM_P2
2024/03/19 00:01:31;;;;;;;3.40;1.30;;;6.30;99.90;;;;;;4867566;29;20184;-95
2024/03/19 00:04:07;;;;;;;3.20;1.80;;;6.20;99.90;;;;;;4882493;29;20222;-95
2024/03/19 00:06:36;;;;;;;2.23;1.60;;;6.20;99.90;;;;;;4868955;29;20181;-95
2024/03/19 00:09:03;;;;;;;3.37;1.70;;;6.10;99.90;;;;;;4866362;29;20192;-93
2024/03/19 00:11:32;;;;;;;2.10;1.53;;;6.10;99.90;;;;;;4866356;29;20680;-95
2024/03/19 00:13:58;;;;;;;2.80;1.50;;;6.10;99.90;;;;;;4869484;29;20235;-95
2024/03/19 00:16:24;;;;;;;4.20;1.73;;;6.10;99.90;;;;;;4855621;29;20199;-95
2024/03/19 00:18:50;;;;;;;3.10;1.60;;;6.10;99.90;;;;;;4868789;29;20267;-93
2024/03/19 00:21:21;;;;;;;2.53;1.60;;;6.10;99.90;;;;;;4868193;29;20192;-96
2024/03/19 00:23:47;;;;;;;5.97;1.70;;;6.00;99.90;;;;;;4870479;29;20194;-95
2024/03/19 00:26:13;;;;;;;3.97;1.50;;;6.00;99.90;;;;;;4885221;29;20176;-96
2024/03/19 00:28:42;;;;;;;5.70;2.40;;;6.00;99.90;;;;;;4868624;29;20188;-95
2024/03/19 00:31:12;;;;;;;1.80;1.40;;;6.00;99.90;;;;;;4868806;29;20183;-96
2024/03/19 00:33:38;;;;;;;3.13;1.67;;;6.00;99.90;;;;;;4868203;29;20223;-94
2024/03/19 00:36:09;;;;;;;2.27;1.80;;;6.00;99.90;;;;;;4867512;29;21009;-94
2024/03/19 00:38:35;;;;;;;3.03;1.60;;;6.00;99.90;;;;;;4869254;29;20604;-92
2024/03/19 00:41:06;;;;;;;2.30;1.40;;;6.00;99.90;;;;;;4869374;29;20188;-96
2024/03/19 00:43:33;;;;;;;2.70;1.50;;;6.00;99.90;;;;;;4869623;29;20310;-95
2024/03/19 00:45:59;;;;;;;2.73;1.70;;;6.00;99.90;;;;;;4867360;29;20188;-93
2024/03/19 00:48:25;;;;;;;3.20;1.47;;;5.90;99.90;;;;;;4869040;29;20192;-91
2024/03/19 00:50:55;;;;;;;3.27;1.97;;;5.90;99.90;;;;;;4870833;29;20184;-95
2024/03/19 00:53:21;;;;;;;2.83;1.60;;;5.90;99.90;;;;;;4853010;29;20276;-96
2024/03/19 00:55:47;;;;;;;3.77;1.70;;;5.80;99.90;;;;;;4850319;29;20224;-95
2024/03/19 00:58:14;;;;;;;2.37;1.60;;;5.80;99.90;;;;;;4850277;29;20188;-94
2024/03/19 01:00:46;;;;;;;4.27;2.00;;;5.80;99.90;;;;;;4850267;29;20199;-95
2024/03/19 01:03:11;;;;;;;4.27;2.10;;;5.80;99.90;;;;;;4849846;29;20253;-96
2024/03/19 01:05:37;;;;;;;2.80;1.70;;;5.70;99.90;;;;;;4850277;29;20189;-94
2024/03/19 01:08:06;;;;;;;3.73;1.60;;;5.70;99.90;;;;;;4847645;29;20213;-95
2024/03/19 01:10:34;;;;;;;3.63;2.00;;;5.70;99.90;;;;;;4848445;29;20185;-94
2024/03/19 01:13:00;;;;;;;3.67;2.10;;;5.70;99.90;;;;;;4848669;29;20228;-93
2024/03/19 01:15:27;;;;;;;3.20;1.87;;;5.70;99.90;;;;;;4848344;29;20243;-94
2024/03/19 01:17:53;;;;;;;3.90;1.90;;;5.60;99.90;;;;;;4848171;29;20197;-92
2024/03/19 01:20:21;;;;;;;2.93;1.90;;;5.60;99.90;;;;;;4847769;29;20549;-93
2024/03/19 01:22:49;;;;;;;2.33;1.90;;;5.60;99.90;;;;;;4861060;29;20281;-92
2024/03/19 01:25:15;;;;;;;3.70;1.90;;;5.60;99.90;;;;;;4867514;29;20188;-93
2024/03/19 01:27:41;;;;;;;3.30;1.97;;;5.60;99.90;;;;;;4866352;29;20196;-92
2024/03/19 01:30:08;;;;;;;3.97;2.00;;;5.60;99.90;;;;;;4866298;29;20256;-94
2024/03/19 01:32:34;;;;;;;3.57;2.20;;;5.50;99.90;;;;;;4865885;29;20274;-92
2024/03/19 01:34:59;;;;;;;3.20;1.90;;;5.50;99.90;;;;;;4866553;29;20214;-94
2024/03/19 01:37:25;;;;;;;3.07;2.13;;;5.50;99.90;;;;;;4883995;29;20194;-95
2024/03/19 01:39:52;;;;;;;2.53;1.80;;;5.50;99.90;;;;;;4885180;29;20248;-95
2024/03/19 01:42:24;;;;;;;3.83;2.30;;;5.50;99.90;;;;;;4883596;29;20219;-95
2024/03/19 01:45:05;;;;;;;2.97;2.07;;;5.50;99.90;;;;;;4867983;29;20604;-93
2024/03/19 01:47:34;;;;;;;4.93;2.13;;;5.40;99.90;;;;;;4866041;29;20203;-91
2024/03/19 01:50:08;;;;;;;2.83;1.73;;;5.40;99.90;;;;;;4866558;29;20184;-95
2024/03/19 01:52:41;;;;;;;2.80;1.90;;;5.40;99.90;;;;;;4867829;29;20223;-93
2024/03/19 01:55:08;;;;;;;4.17;2.43;;;5.30;99.90;;;;;;4866998;29;20179;-94
2024/03/19 01:57:36;;;;;;;4.17;2.00;;;5.30;99.90;;;;;;4867119;29;20190;-96
2024/03/19 02:00:05;;;;;;;3.10;1.93;;;5.30;99.90;;;;;;4868871;29;20267;-95
2024/03/19 02:02:38;;;;;;;3.97;1.80;;;5.20;99.90;;;;;;4868274;29;20558;-96
2024/03/19 02:05:07;;;;;;;6.03;2.30;;;5.20;99.90;;;;;;4866081;29;20176;-94
2024/03/19 02:07:36;;;;;;;4.03;1.70;;;5.20;99.90;;;;;;4865790;29;20796;-96
2024/03/19 02:10:01;;;;;;;3.97;2.07;;;5.10;99.90;;;;;;4866235;29;20195;-93
2024/03/19 02:12:29;;;;;;;3.43;1.90;;;5.10;99.90;;;;;;4866161;29;20615;-93
2024/03/19 02:14:55;;;;;;;2.60;1.70;;;5.10;99.90;;;;;;4866758;29;20263;-94
2024/03/19 02:17:23;;;;;;;5.37;1.80;;;5.10;99.90;;;;;;4866959;29;20190;-94
2024/03/19 02:19:49;;;;;;;3.13;1.80;;;5.00;99.90;;;;;;4866607;29;20187;-95
2024/03/19 02:22:21;;;;;;;7.03;2.20;;;5.00;99.90;;;;;;4865570;29;20224;-92
2024/03/19 02:24:46;;;;;;;3.53;1.83;;;5.00;99.90;;;;;;4866901;29;20187;-92
2024/03/19 02:27:12;;;;;;;3.83;1.87;;;5.00;99.90;;;;;;4865404;29;20274;-93
2024/03/19 02:29:38;;;;;;;4.10;2.00;;;5.00;99.90;;;;;;4865861;29;20242;-94
2024/03/19 02:32:10;;;;;;;3.73;1.90;;;5.00;99.90;;;;;;4865811;29;20208;-92
2024/03/19 02:34:36;;;;;;;5.60;2.10;;;4.90;99.90;;;;;;4865577;29;20635;-93
2024/03/19 02:37:02;;;;;;;3.47;2.20;;;4.90;99.90;;;;;;4881448;29;20176;-93
2024/03/19 02:39:28;;;;;;;5.23;2.00;;;4.90;99.90;;;;;;4865263;29;20188;-93
2024/03/19 02:41:53;;;;;;;4.50;1.93;;;4.90;99.90;;;;;;4865528;29;20702;-93
2024/03/19 02:44:19;;;;;;;4.10;2.40;;;4.80;99.90;;;;;;4866175;29;20179;-93
2024/03/19 02:46:45;;;;;;;3.33;1.97;;;4.80;99.90;;;;;;4865496;29;20213;-91
2024/03/19 02:49:11;;;;;;;10.47;1.97;;;4.70;99.90;;;;;;4866030;29;20188;-95
2024/03/19 02:51:42;;;;;;;2.87;1.73;;;4.70;99.90;;;;;;4865505;29;20295;-95
2024/03/19 02:54:07;;;;;;;5.97;2.03;;;4.70;99.90;;;;;;4866636;29;20180;-93
2024/03/19 02:56:33;;;;;;;2.83;2.00;;;4.70;99.90;;;;;;4857449;29;20528;-96
2024/03/19 02:58:59;;;;;;;4.03;2.27;;;4.70;99.90;;;;;;4848229;29;20192;-94
2024/03/19 03:01:25;;;;;;;5.07;2.43;;;4.60;99.90;;;;;;4846341;29;20184;-93
2024/03/19 03:03:50;;;;;;;4.83;2.30;;;4.60;99.90;;;;;;4847232;29;20188;-95
2024/03/19 03:06:16;;;;;;;4.60;2.10;;;4.60;99.90;;;;;;4846972;29;20547;-93
2024/03/19 03:08:42;;;;;;;2.50;1.77;;;4.60;99.90;;;;;;5278011;23;20198;-84
2024/03/19 03:11:07;;;;;;;3.30;2.00;;;4.50;99.90;;;;;;4862117;29;20207;-83
2024/03/19 03:13:33;;;;;;;4.70;2.17;;;4.50;99.90;;;;;;4880095;29;20188;-83
2024/03/19 03:15:59;;;;;;;7.13;2.10;;;4.50;99.90;;;;;;4879847;29;20646;-82
2024/03/19 03:18:24;;;;;;;2.30;1.77;;;4.40;99.90;;;;;;4880041;29;20191;-84
2024/03/19 03:20:50;;;;;;;4.10;2.03;;;4.30;99.90;;;;;;4863264;29;20740;-84
2024/03/19 03:23:16;;;;;;;3.50;1.87;;;4.30;99.90;;;;;;4880083;29;20561;-85
2024/03/19 03:25:42;;;;;;;3.53;2.20;;;4.30;99.90;;;;;;4863140;29;20267;-86
2024/03/19 03:28:08;;;;;;;3.90;2.00;;;4.30;99.90;;;;;;4863354;29;20628;-85
2024/03/19 03:30:34;;;;;;;3.10;2.00;;;4.30;99.90;;;;;;4863811;29;20192;-85
2024/03/19 03:32:59;;;;;;;3.60;2.10;;;4.30;99.90;;;;;;4867151;29;20176;-84
2024/03/19 03:35:25;;;;;;;3.17;2.00;;;4.30;99.90;;;;;;4866655;29;20184;-84
2024/03/19 03:37:51;;;;;;;3.30;1.97;;;4.30;99.90;;;;;;4866904;29;20252;-85
2024/03/19 03:40:19;;;;;;;5.50;2.20;;;4.20;99.90;;;;;;4866414;29;20198;-83
2024/03/19 03:42:46;;;;;;;4.40;2.00;;;4.20;99.90;;;;;;4883624;29;20243;-85
2024/03/19 03:45:13;;;;;;;3.23;2.00;;;4.20;99.90;;;;;;4883374;29;20180;-85
2024/03/19 03:47:40;;;;;;;4.60;2.43;;;4.20;99.90;;;;;;4866717;29;20202;-84
2024/03/19 03:50:10;;;;;;;3.03;2.10;;;4.20;99.90;;;;;;4866929;29;20275;-85
2024/03/19 03:52:37;;;;;;;4.57;2.20;;;4.20;99.90;;;;;;4866769;29;20593;-84
2024/03/19 03:55:07;;;;;;;4.20;2.23;;;4.20;99.90;;;;;;4866447;29;20184;-86
2024/03/19 03:57:34;;;;;;;3.63;2.23;;;4.20;99.90;;;;;;4866362;29;20201;-84
2024/03/19 04:00:06;;;;;;;4.77;2.40;;;4.20;99.90;;;;;;4866489;29;20180;-84
2024/03/19 04:02:31;;;;;;;5.10;2.60;;;4.20;99.90;;;;;;4866541;29;20272;-85
2024/03/19 04:04:57;;;;;;;2.63;1.83;;;4.10;99.90;;;;;;4866503;29;20196;-86
2024/03/19 04:07:23;;;;;;;4.17;2.30;;;4.20;99.90;;;;;;4866363;29;20188;-84
2024/03/19 04:09:48;;;;;;;4.43;2.43;;;4.20;99.90;;;;;;4883007;29;20239;-85
2024/03/19 04:12:15;;;;;;;4.27;2.10;;;4.10;99.90;;;;;;4866722;29;20191;-87
2024/03/19 04:14:40;;;;;;;4.03;2.20;;;4.10;99.90;;;;;;4883579;29;20172;-85
2024/03/19 04:17:06;;;;;;;7.87;2.40;;;4.10;99.90;;;;;;4866535;29;20574;-86
2024/03/19 04:19:32;;;;;;;3.67;2.37;;;4.10;99.90;;;;;;4866683;29;20184;-85
2024/03/19 04:21:58;;;;;;;5.73;2.40;;;4.10;99.90;;;;;;4866274;29;20208;-86
2024/03/19 04:24:23;;;;;;;5.37;2.50;;;4.00;99.90;;;;;;4882788;29;20180;-86
2024/03/19 04:26:49;;;;;;;5.37;2.73;;;4.00;99.90;;;;;;4866113;29;20184;-85
2024/03/19 04:29:16;;;;;;;6.53;2.40;;;4.00;99.90;;;;;;4882115;29;20263;-85
2024/03/19 04:31:42;;;;;;;5.07;2.40;;;3.90;99.90;;;;;;4866188;29;20183;-86
2024/03/19 04:34:09;;;;;;;5.57;2.57;;;3.90;99.90;;;;;;4866402;29;20244;-85
2024/03/19 04:36:35;;;;;;;4.90;2.40;;;3.90;99.90;;;;;;4865888;29;20537;-85
2024/03/19 04:39:10;;;;;;;4.23;2.13;;;3.90;99.90;;;;;;4865880;29;20188;-84
2024/03/19 04:41:39;;;;;;;4.10;2.57;;;3.90;99.90;;;;;;4882522;29;20582;-84
2024/03/19 04:44:06;;;;;;;3.77;2.20;;;3.90;99.90;;;;;;4865241;29;20188;-84
2024/03/19 04:46:31;;;;;;;5.70;2.80;;;3.90;99.90;;;;;;4865796;29;20190;-83
2024/03/19 04:48:57;;;;;;;6.93;2.77;;;3.90;99.90;;;;;;4882484;29;20188;-83
2024/03/19 04:51:24;;;;;;;3.10;1.97;;;3.90;99.90;;;;;;4865934;29;20233;-84
2024/03/19 04:53:49;;;;;;;5.90;2.60;;;3.90;99.90;;;;;;4865816;29;20180;-85
2024/03/19 04:56:15;;;;;;;5.43;2.60;;;3.90;99.90;;;;;;4865357;29;20188;-84
2024/03/19 04:58:41;;;;;;;2.77;2.40;;;3.90;99.90;;;;;;4882800;29;20188;-85
2024/03/19 05:01:13;;;;;;;4.57;2.27;;;3.90;99.90;;;;;;4865873;29;20195;-85
2024/03/19 05:03:39;;;;;;;5.83;2.80;;;3.90;99.90;;;;;;4882846;29;20222;-85
2024/03/19 05:06:05;;;;;;;5.37;2.80;;;3.80;99.90;;;;;;4865947;29;20271;-85
2024/03/19 05:08:31;;;;;;;3.53;2.60;;;3.80;99.90;;;;;;4865635;29;20195;-85
2024/03/19 05:10:57;;;;;;;5.63;2.87;;;3.80;99.90;;;;;;4865195;29;20233;-85
2024/03/19 05:13:23;;;;;;;3.93;2.53;;;3.80;99.90;;;;;;4866053;29;20635;-85
2024/03/19 05:15:48;;;;;;;4.73;2.67;;;3.80;99.90;;;;;;4865712;29;20271;-87
2024/03/19 05:18:14;;;;;;;3.90;2.50;;;3.70;99.90;;;;;;4865743;29;20191;-85
2024/03/19 05:20:40;;;;;;;4.70;2.70;;;3.80;99.90;;;;;;4865670;29;20215;-83
2024/03/19 05:23:05;;;;;;;3.33;2.63;;;3.80;99.90;;;;;;4865136;29;20261;-83
2024/03/19 05:25:32;;;;;;;5.50;3.03;;;3.80;99.90;;;;;;4881348;29;20627;-83
2024/03/19 05:27:58;;;;;;;4.60;2.60;;;3.80;99.90;;;;;;4881781;29;20180;-83
2024/03/19 05:30:27;;;;;;;4.93;2.77;;;3.80;99.90;;;;;;4865030;29;20191;-84
2024/03/19 05:32:54;;;;;;;4.37;2.80;;;3.80;99.90;;;;;;4865084;29;20192;-83
2024/03/19 05:35:20;;;;;;;4.60;3.00;;;3.90;99.90;;;;;;4864944;29;20200;-84
2024/03/19 05:37:45;;;;;;;5.17;2.90;;;3.90;99.90;;;;;;4864572;29;20183;-84
2024/03/19 05:40:12;;;;;;;6.00;2.80;;;3.90;99.90;;;;;;4881363;29;20580;-83
2024/03/19 05:42:39;;;;;;;5.07;3.23;;;3.90;99.90;;;;;;4865115;29;20219;-85
2024/03/19 05:45:05;;;;;;;4.63;2.80;;;3.90;99.90;;;;;;4864865;29;20172;-85
2024/03/19 05:47:31;;;;;;;5.97;3.20;;;3.90;99.90;;;;;;4856835;29;20188;-83
2024/03/19 05:49:57;;;;;;;5.50;2.70;;;3.90;99.90;;;;;;4861534;29;20253;-84
2024/03/19 05:52:26;;;;;;;4.83;2.90;;;4.00;99.90;;;;;;4860778;29;20191;-84
2024/03/19 05:54:51;;;;;;;6.77;3.30;;;4.00;99.90;;;;;;4862422;29;20252;-84
2024/03/19 05:57:17;;;;;;;7.30;3.03;;;4.00;99.90;;;;;;4861459;29;20280;-86
2024/03/19 05:59:43;;;;;;;3.83;3.07;;;4.00;99.90;;;;;;4861539;29;20233;-82
2024/03/19 06:02:09;;;;;;;5.23;3.03;;;4.00;99.90;;;;;;4862631;29;20216;-85
2024/03/19 06:04:35;;;;;;;5.27;3.13;;;4.00;99.90;;;;;;4861256;29;20534;-84
2024/03/19 06:07:01;;;;;;;7.23;3.10;;;4.00;99.90;;;;;;4862282;29;20185;-84
2024/03/19 06:09:29;;;;;;;5.47;3.40;;;4.00;99.90;;;;;;4860152;29;20233;-83
2024/03/19 06:11:55;;;;;;;5.23;3.43;;;4.00;99.90;;;;;;4861297;29;20275;-85
2024/03/19 06:14:22;;;;;;;4.90;2.97;;;4.00;99.90;;;;;;4859863;29;20189;-84
2024/03/19 06:16:47;;;;;;;4.23;3.10;;;4.00;99.90;;;;;;4861085;29;20192;-86
2024/03/19 06:19:19;;;;;;;4.07;2.70;;;4.00;99.90;;;;;;4856688;29;20621;-84
2024/03/19 06:21:45;;;;;;;7.07;3.30;;;3.90;99.90;;;;;;4878604;29;20600;-84
2024/03/19 06:24:11;;;;;;;4.60;3.30;;;4.00;99.90;;;;;;4858867;29;20183;-84
2024/03/19 06:26:38;;;;;;;4.60;3.03;;;4.00;99.90;;;;;;4866668;29;20188;-83
2024/03/19 06:29:04;;;;;;;6.67;3.50;;;4.10;99.90;;;;;;4879721;29;20239;-84
2024/03/19 06:31:33;;;;;;;3.73;2.90;;;4.20;99.90;;;;;;4880466;29;20258;-84
2024/03/19 06:33:59;;;;;;;5.83;3.63;;;4.20;99.90;;;;;;4880629;29;20180;-86
2024/03/19 06:36:25;;;;;;;4.13;3.17;;;4.30;99.90;;;;;;4880412;29;20188;-83
2024/03/19 06:38:51;;;;;;;7.63;3.87;;;4.30;99.90;;;;;;4863903;29;20211;-85
2024/03/19 06:41:16;;;;;;;7.47;3.60;;;4.40;99.90;;;;;;4863081;29;20276;-84
2024/03/19 06:43:42;;;;;;;5.37;3.10;;;4.40;99.90;;;;;;4863345;29;20642;-85
2024/03/19 06:46:08;;;;;;;7.40;3.47;;;4.50;99.90;;;;;;4863753;29;21005;-83
2024/03/19 06:48:35;;;;;;;4.57;3.40;;;4.50;99.90;;;;;;4862904;29;20192;-84
2024/03/19 06:51:08;;;;;;;8.40;3.50;;;4.60;99.90;;;;;;4880371;29;20271;-84
2024/03/19 06:53:34;;;;;;;5.23;3.30;;;4.60;99.90;;;;;;4880518;29;20193;-84
2024/03/19 06:55:59;;;;;;;8.23;3.63;;;4.70;99.90;;;;;;4862882;29;20300;-85
2024/03/19 06:58:25;;;;;;;6.53;3.50;;;4.80;99.90;;;;;;4880627;29;20180;-86
2024/03/19 07:00:52;;;;;;;8.27;3.30;;;4.80;99.90;;;;;;4879903;29;20188;-85
2024/03/19 07:03:20;;;;;;;7.10;3.63;;;4.90;99.90;;;;;;4880038;29;20574;-84
2024/03/19 07:05:46;;;;;;;12.20;3.67;;;4.90;99.90;;;;;;4878591;29;20574;-84
2024/03/19 07:08:12;;;;;;;6.87;3.57;;;5.00;99.90;;;;;;4880378;29;20188;-85
2024/03/19 07:10:38;;;;;;;9.37;3.73;;;5.00;99.90;;;;;;4863400;29;20282;-84
2024/03/19 07:13:08;;;;;;;6.20;3.60;;;5.00;99.90;;;;;;4856257;29;20193;-86
2024/03/19 07:15:34;;;;;;;5.90;3.87;;;5.10;99.90;;;;;;4861558;29;20165;-85
2024/03/19 07:18:01;;;;;;;5.50;3.50;;;5.10;99.90;;;;;;4845079;29;20568;-84
2024/03/19 07:20:31;;;;;;;8.10;3.70;;;5.10;99.90;;;;;;4844500;29;20180;-85
2024/03/19 07:22:58;;;;;;;6.40;3.57;;;5.20;99.90;;;;;;4844882;29;20223;-85
2024/03/19 07:25:24;;;;;;;6.37;3.90;;;5.20;99.90;;;;;;4857587;29;20297;-86
2024/03/19 07:27:50;;;;;;;6.87;4.00;;;5.20;99.90;;;;;;4880073;29;20180;-87
2024/03/19 07:30:17;;;;;;;5.57;4.00;;;5.20;99.90;;;;;;4880014;29;20180;-85
2024/03/19 07:32:44;;;;;;;5.97;3.60;;;5.20;99.90;;;;;;4878946;29;20211;-88
2024/03/19 07:35:10;;;;;;;5.43;3.63;;;5.30;99.90;;;;;;4879045;29;20180;-86
2024/03/19 07:37:37;;;;;;;9.13;3.73;;;5.30;99.90;;;;;;4878967;29;20639;-86
2024/03/19 07:40:09;;;;;;;5.10;3.53;;;5.40;99.90;;;;;;4858385;29;20193;-86
2024/03/19 07:42:39;;;;;;;5.77;3.53;;;5.40;99.90;;;;;;4844792;29;20307;-86
2024/03/19 07:45:06;;;;;;;7.73;3.97;;;5.50;99.90;;;;;;4861557;29;20252;-86
2024/03/19 07:47:35;;;;;;;7.20;3.77;;;5.60;99.90;;;;;;4861355;29;20748;-86
2024/03/19 07:50:03;;;;;;;7.17;3.93;;;5.60;99.90;;;;;;4861309;29;20228;-86
2024/03/19 07:52:29;;;;;;;7.40;4.00;;;5.70;99.90;;;;;;4855130;29;20196;-84
2024/03/19 07:54:55;;;;;;;6.53;3.70;;;5.80;99.90;;;;;;4863122;29;20183;-85
2024/03/19 07:57:21;;;;;;;5.13;3.63;;;5.90;99.90;;;;;;4863038;29;20184;-85
2024/03/19 07:59:47;;;;;;;5.50;3.60;;;6.00;99.90;;;;;;4863184;29;20180;-85
2024/03/19 08:02:13;;;;;;;6.93;3.93;;;6.20;99.90;;;;;;4879552;29;20682;-85
2024/03/19 08:04:39;;;;;;;6.67;4.23;;;6.30;99.90;;;;;;4879469;29;20489;-84
2024/03/19 08:07:04;;;;;;;5.77;3.90;;;6.30;99.90;;;;;;4865576;29;20181;-84
2024/03/19 08:09:30;;;;;;;6.50;4.37;;;6.50;99.90;;;;;;4844312;29;20319;-84
2024/03/19 08:12:00;;;;;;;9.10;3.97;;;6.50;99.90;;;;;;4861059;29;20267;-86
2024/03/19 08:14:26;;;;;;;6.10;4.03;;;6.60;99.90;;;;;;4844510;29;20181;-84
2024/03/19 08:16:52;;;;;;;5.20;3.90;;;6.70;99.90;;;;;;4861029;29;20177;-85
2024/03/19 08:19:18;;;;;;;5.03;3.47;;;6.70;99.90;;;;;;4847269;29;20696;-85
2024/03/19 08:21:44;;;;;;;6.83;4.40;;;6.70;99.90;;;;;;4847478;29;20689;-84
2024/03/19 08:24:11;;;;;;;7.73;3.93;;;6.80;99.90;;;;;;4850757;29;20196;-85
2024/03/19 08:26:37;;;;;;;6.63;4.50;;;6.90;99.90;;;;;;4855968;29;20188;-84
2024/03/19 08:29:03;;;;;;;7.47;4.60;;;7.00;99.90;;;;;;4863183;29;20189;-85
2024/03/19 08:31:29;;;;;;;8.53;4.40;;;7.10;99.90;;;;;;4855381;29;20236;-85
2024/03/19 08:33:54;;;;;;;6.03;4.10;;;7.30;99.90;;;;;;4883085;29;20195;-84
2024/03/19 08:36:20;;;;;;;4.77;3.70;;;7.40;99.90;;;;;;4882437;29;20168;-86
2024/03/19 08:38:47;;;;;;;5.50;3.87;;;7.40;99.90;;;;;;4866051;29;20223;-86
2024/03/19 08:41:12;;;;;;;5.60;4.10;;;7.50;99.90;;;;;;4881741;29;20184;-86
2024/03/19 08:43:38;;;;;;;5.03;3.47;;;7.50;99.90;;;;;;4882774;29;20687;-86
2024/03/19 08:46:04;;;;;;;5.83;3.80;;;7.70;99.90;;;;;;4865735;29;20188;-86
2024/03/19 08:48:30;;;;;;;8.87;4.33;;;7.90;99.90;;;;;;4881392;29;20191;-85
2024/03/19 08:50:57;;;;;;;4.80;3.77;;;7.80;99.90;;;;;;4865719;29;20184;-85
2024/03/19 08:53:23;;;;;;;7.37;4.17;;;7.90;99.90;;;;;;4865789;29;20253;-86
2024/03/19 08:55:58;;;;;;;5.47;3.97;;;7.90;99.90;;;;;;4882263;29;20670;-85
2024/03/19 08:58:23;;;;;;;6.57;4.40;;;7.80;99.90;;;;;;4881674;29;20534;-85
2024/03/19 09:00:50;;;;;;;8.87;4.03;;;7.80;99.90;;;;;;4866215;29;20180;-84
2024/03/19 09:03:15;;;;;;;7.37;4.20;;;7.90;99.90;;;;;;4882155;29;20212;-86
2024/03/19 09:05:41;;;;;;;5.87;3.77;;;7.90;99.90;;;;;;4881977;29;20213;-85
2024/03/19 09:08:07;;;;;;;6.07;4.37;;;8.10;99.90;;;;;;4881968;29;20316;-85
2024/03/19 09:10:33;;;;;;;6.43;3.93;;;8.10;99.90;;;;;;4881986;29;20232;-86
2024/03/19 09:13:00;;;;;;;7.20;4.43;;;8.10;99.90;;;;;;4882025;29;20188;-84
2024/03/19 09:15:26;;;;;;;7.97;4.27;;;8.10;99.90;;;;;;4880661;29;20199;-84
2024/03/19 09:17:55;;;;;;;7.50;4.63;;;8.10;99.90;;;;;;4865362;29;20192;-86
2024/03/19 09:20:21;;;;;;;7.77;4.60;;;8.20;99.90;;;;;;4864900;29;20184;-85
2024/03/19 09:22:47;;;;;;;6.43;4.40;;;8.30;99.90;;;;;;4881789;29;20223;-85
2024/03/19 09:25:14;;;;;;;6.13;4.10;;;8.40;99.90;;;;;;4865126;29;20533;-84
2024/03/19 09:27:40;;;;;;;5.20;3.60;;;8.50;99.90;;;;;;4881827;29;20281;-84
2024/03/19 09:30:07;;;;;;;6.20;4.30;;;8.50;99.90;;;;;;4881455;29;20280;-85
2024/03/19 09:32:34;;;;;;;6.53;4.17;;;8.60;99.90;;;;;;4880449;29;20192;-85
2024/03/19 09:35:01;;;;;;;5.43;3.97;;;8.70;99.90;;;;;;4880152;29;20188;-85
2024/03/19 09:37:27;;;;;;;6.63;3.83;;;8.90;99.90;;;;;;4881253;29;20232;-84
2024/03/19 09:39:53;;;;;;;7.03;4.05;;;9.10;99.90;;;;;;4881641;29;20176;-87
2024/03/19 09:42:26;;;;;;;5.05;3.97;;;9.10;99.90;;;;;;4881590;29;20268;-84
2024/03/19 09:44:52;;;;;;;8.07;3.85;;;9.20;99.90;;;;;;4880429;29;20215;-86
2024/03/19 09:47:22;;;;;;;5.68;4.25;;;9.40;99.90;;;;;;4852043;29;20192;-86
2024/03/19 09:49:49;;;;;;;5.68;3.88;;;9.40;99.90;;;;;;4846127;29;20250;-85
2024/03/19 09:52:15;;;;;;;6.45;4.35;;;9.50;99.90;;;;;;4863005;29;20184;-85
2024/03/19 09:54:41;;;;;;;5.88;4.10;;;9.60;99.90;;;;;;4853558;29;20206;-83
2024/03/19 09:57:16;;;;;;;7.07;4.63;;;9.70;99.90;;;;;;4864600;29;20267;-85
2024/03/19 09:59:46;;;;;;;7.03;4.15;;;9.80;99.90;;;;;;4864850;29;20188;-86
2024/03/19 10:02:20;;;;;;;8.23;3.78;;;10.00;99.90;;;;;;4864521;29;20214;-85
2024/03/19 10:04:48;;;;;;;6.13;4.15;;;10.10;99.90;;;;;;4881059;29;20184;-85
2024/03/19 10:07:21;;;;;;;6.00;4.15;;;10.10;99.90;;;;;;4864325;29;20207;-88
2024/03/19 10:09:48;;;;;;;8.55;4.55;;;10.30;99.90;;;;;;4864412;29;20247;-86
2024/03/19 10:12:15;;;;;;;6.95;4.57;;;10.40;99.90;;;;;;4864309;29;20265;-87
2024/03/19 10:14:42;;;;;;;6.38;4.00;;;10.50;99.90;;;;;;4865047;29;20212;-88
2024/03/19 10:17:15;;;;;;;6.25;4.13;;;10.60;99.90;;;;;;4862299;29;20169;-86
2024/03/19 10:19:40;;;;;;;10.40;4.70;;;10.70;99.90;;;;;;4862487;29;20188;-87
2024/03/19 10:22:11;;;;;;;5.93;4.60;;;10.60;99.90;;;;;;4845699;29;20205;-88
2024/03/19 10:24:37;;;;;;;7.18;4.38;;;10.60;99.90;;;;;;4852514;29;20276;-86
2024/03/19 10:27:06;;;;;;;6.45;4.53;;;10.60;99.90;;;;;;4880656;29;20208;-86
2024/03/19 10:29:34;;;;;;;8.43;4.88;;;10.60;99.90;;;;;;4880997;29;20187;-84
2024/03/19 10:32:00;;;;;;;9.32;5.10;;;10.70;99.90;;;;;;4864634;29;20235;-87
2024/03/19 10:34:26;;;;;;;7.10;4.95;;;10.80;99.90;;;;;;4880828;29;20559;-85
2024/03/19 10:36:53;;;;;;;6.10;4.63;;;10.90;99.90;;;;;;4879482;29;20183;-86
2024/03/19 10:39:24;;;;;;;6.40;4.35;;;10.90;99.90;;;;;;4881105;29;20184;-85
2024/03/19 10:41:53;;;;;;;9.98;5.47;;;11.00;99.90;;;;;;4863896;29;20217;-87
2024/03/19 10:44:21;;;;;;;8.07;5.03;;;11.00;99.90;;;;;;4881304;29;20196;-88
2024/03/19 10:46:48;;;;;;;7.53;5.13;;;11.00;99.90;;;;;;4880707;29;20160;-86
2024/03/19 10:49:23;;;;;;;9.73;5.32;;;11.00;99.90;;;;;;4864338;29;20700;-87
2024/03/19 10:52:10;;;;;;;6.95;5.15;;;11.10;99.90;;;;;;4864122;29;20223;-86
2024/03/19 10:54:43;;;;;;;7.13;5.25;;;11.20;99.90;;;;;;4880144;29;20192;-87
2024/03/19 10:57:15;;;;;;;8.05;4.88;;;11.30;99.90;;;;;;4880968;29;20172;-88
2024/03/19 10:59:41;;;;;;;11.60;4.93;;;11.40;99.90;;;;;;4864446;29;20671;-87
2024/03/19 11:02:07;;;;;;;10.50;5.78;;;11.50;99.90;;;;;;4861205;29;20203;-84
2024/03/19 11:04:33;;;;;;;9.00;5.07;;;11.50;99.90;;;;;;4879767;29;20196;-87
2024/03/19 11:07:00;;;;;;;8.82;5.57;;;11.50;99.90;;;;;;4868455;29;20695;-86
2024/03/19 11:09:26;;;;;;;10.35;5.15;;;11.50;99.90;;;;;;4883919;29;20389;-86
2024/03/19 11:12:01;;;;;;;6.53;5.35;;;11.60;99.90;;;;;;4864548;29;20199;-87
2024/03/19 11:14:29;;;;;;;8.85;5.30;;;11.80;99.90;;;;;;4866637;29;20190;-88
2024/03/19 11:16:54;;;;;;;9.02;5.57;;;12.00;99.90;;;;;;4866337;29;20191;-87
2024/03/19 11:19:24;;;;;;;9.80;5.78;;;12.10;99.90;;;;;;4866454;29;20615;-86
2024/03/19 11:21:56;;;;;;;7.22;5.38;;;12.10;99.90;;;;;;4862612;29;20600;-88
2024/03/19 11:24:28;;;;;;;10.07;5.57;;;12.00;99.90;;;;;;4878961;29;20696;-88
2024/03/19 11:26:57;;;;;;;8.63;5.65;;;12.00;99.90;;;;;;4861781;29;20196;-87
2024/03/19 11:29:28;;;;;;;8.40;5.47;;;12.00;99.90;;;;;;4861870;29;20202;-87
2024/03/19 11:32:01;;;;;;;7.82;5.68;;;12.10;99.90;;;;;;4861785;29;20191;-86
2024/03/19 11:34:28;;;;;;;9.00;5.32;;;12.10;99.90;;;;;;4879392;29;20574;-86
2024/03/19 11:36:55;;;;;;;9.40;5.63;;;12.20;99.90;;;;;;4877225;29;20624;-86
2024/03/19 11:39:22;;;;;;;7.07;5.43;;;12.30;99.90;;;;;;4878947;29;20279;-85
2024/03/19 11:41:48;;;;;;;7.32;5.75;;;12.30;99.90;;;;;;4877921;29;20220;-85
2024/03/19 11:44:19;;;;;;;7.72;5.40;;;12.50;99.90;;;;;;4879022;29;20683;-86
2024/03/19 11:46:47;;;;;;;9.63;5.78;;;12.60;99.90;;;;;;4877972;29;20621;-86
2024/03/19 11:49:27;;;;;;;8.75;6.10;;;12.60;99.90;;;;;;4880800;29;20228;-86
2024/03/19 11:52:07;;;;;;;8.45;5.63;;;12.80;99.90;;;;;;4877736;29;20183;-85
2024/03/19 11:54:40;;;;;;;9.05;5.57;;;12.90;99.90;;;;;;4883651;29;20195;-87
2024/03/19 11:57:07;;;;;;;7.57;5.82;;;12.90;99.90;;;;;;4865042;29;20235;-87
2024/03/19 11:59:33;;;;;;;9.80;6.22;;;13.10;99.90;;;;;;4884196;29;20190;-88
2024/03/19 12:01:59;;;;;;;8.05;5.95;;;13.20;99.90;;;;;;4866513;29;20215;-88
2024/03/19 12:04:31;;;;;;;8.73;6.15;;;13.20;99.90;;;;;;4883606;29;20195;-88
2024/03/19 12:07:04;;;;;;;7.72;6.25;;;13.10;99.90;;;;;;4868758;29;20188;-87
2024/03/19 12:09:30;;;;;;;9.40;6.82;;;13.20;99.90;;;;;;4882381;29;20235;-88
2024/03/19 12:11:57;;;;;;;8.73;6.15;;;13.40;99.90;;;;;;4870139;29;20188;-87
2024/03/19 12:14:25;;;;;;;10.90;6.93;;;13.40;99.90;;;;;;4880875;29;20195;-88
2024/03/19 12:16:52;;;;;;;9.57;6.72;;;13.50;99.90;;;;;;4873505;29;20188;-88
2024/03/19 12:19:19;;;;;;;10.93;7.88;;;13.50;99.90;;;;;;4872145;29;20192;-86
2024/03/19 12:21:47;;;;;;;12.15;6.88;;;13.60;99.90;;;;;;4881760;29;20497;-86
2024/03/19 12:24:15;;;;;;;12.23;7.45;;;13.40;99.90;;;;;;4880594;29;20655;-87
2024/03/19 12:26:46;;;;;;;9.75;7.32;;;13.40;99.90;;;;;;4872549;29;20195;-89
2024/03/19 12:29:17;;;;;;;11.60;7.28;;;13.40;99.90;;;;;;4873439;29;20279;-86
2024/03/19 12:31:59;;;;;;;11.25;7.72;;;13.40;99.90;;;;;;4874836;29;20616;-88
2024/03/19 12:37:11;;;;;;;8.45;6.22;;;13.50;99.90;;;;;;4881830;29;20556;-85
2024/03/19 12:39:37;;;;;;;11.40;6.82;;;13.40;99.90;;;;;;4875259;29;20259;-84
2024/03/19 12:42:07;;;;;;;10.50;6.75;;;13.30;99.90;;;;;;4878033;29;20302;-88
2024/03/19 12:44:33;;;;;;;11.65;6.88;;;13.20;99.90;;;;;;4868208;29;20196;-86
2024/03/19 12:46:59;;;;;;;13.52;7.55;;;13.30;99.90;;;;;;4868053;29;20207;-85
2024/03/19 12:49:25;;;;;;;8.55;6.30;;;13.40;99.90;;;;;;4873975;29;20516;-84
2024/03/19 12:51:52;;;;;;;9.90;6.85;;;13.40;99.90;;;;;;4875795;29;20270;-85
2024/03/19 12:54:19;;;;;;;10.75;6.50;;;13.40;99.90;;;;;;4872909;29;20698;-85
2024/03/19 12:56:46;;;;;;;9.27;6.57;;;13.40;99.90;;;;;;4880952;29;20184;-85
2024/03/19 12:59:11;;;;;;;9.88;6.93;;;13.40;99.90;;;;;;4880973;29;20651;-85